WetterOnline ( https://www.wetteronline.de )

Wetter aktuell Bannewitz

Aktuelles Wetter: Dresden/Klotzsche (232m)

6-stündlich | Neueste Meldungen
Ortszeit Temperatur Wetter
Mo, 23.11. 19:00 5.1° C leicht bewölkt
Mo, 23.11. 13:00 7.5° C bewölkt
Mo, 23.11. 7:00 6.6° C bedeckt
Mo, 23.11. 1:00 7.3° C leichter Regen
So, 22.11. 19:00 7.0° C bedeckt
So, 22.11. 13:00 8.9° C bedeckt
So, 22.11. 7:00 6.1° C bedeckt
So, 22.11. 1:00 5.3° C bedeckt
Ortszeit Temperatur Wetter
Mo, 23.11. 19:20 5° C leicht bewölkt
Mo, 23.11. 19:00 5.1° C leicht bewölkt
Mo, 23.11. 18:50 5.1° C wolkig
Mo, 23.11. 18:40 5.2° C wolkig
Mo, 23.11. 18:30 5.0° C fast wolkenlos
Mo, 23.11. 18:20 5.0° C wolkenlos
Mo, 23.11. 18:00 5.5° C leicht bewölkt
Mo, 23.11. 17:30 6.1° C wolkig
Mo, 23.11. 17:00 6.5° C wolkig
Mo, 23.11. 16:30 6.7° C bewölkt
Mo, 23.11. 16:00 7.1° C leicht bewölkt
Ortszeit Relative Feuchte Sichtweite
Mo, 23.11. 19:00 76% 35 km
Mo, 23.11. 13:00 70% 25 km
Mo, 23.11. 7:00 87% 18 km
Mo, 23.11. 1:00 84% 30 km
So, 22.11. 19:00 88% 30 km
So, 22.11. 13:00 69% 40 km
So, 22.11. 7:00 66% 60 km
So, 22.11. 1:00 50% 70 km
Ortszeit Relative Feuchte Sichtweite
Mo, 23.11. 19:20 75% >10 km
Mo, 23.11. 19:00 76% 35 km
Mo, 23.11. 18:50 76% -
Mo, 23.11. 18:40 77% -
Mo, 23.11. 18:30 77% 50 km
Mo, 23.11. 18:20 77% -
Mo, 23.11. 18:00 75% 35 km
Mo, 23.11. 17:30 74% 45 km
Mo, 23.11. 17:00 73% 30 km
Mo, 23.11. 16:30 72% 40 km
Mo, 23.11. 16:00 71% 30 km
Ortszeit Niederschlagsmenge Niederschlagsart
Mo, 23.11. 19:00 0.2 l/m2 in 12 Std. -
Mo, 23.11. 13:00 0.2 l/m2 in 6 Std. Schauer
Mo, 23.11. 7:00 0.1 l/m2 in 12 Std. Regen
Mo, 23.11. 1:00 0.1 l/m2 in 6 Std. -
So, 22.11. 19:00 0.1 l/m2 in 12 Std. -
So, 22.11. 13:00 0.0 l/m2 in 6 Std. -
So, 22.11. 7:00 0.0 l/m2 in 12 Std. -
So, 22.11. 1:00 0.0 l/m2 in 6 Std. -
Ortszeit Niederschlagsmenge Niederschlagsart
Mo, 23.11. 19:20 keine Meldung -
Mo, 23.11. 19:00 0.0 l/m2 in 1 Std. -
Mo, 23.11. 18:50 keine Meldung -
Mo, 23.11. 18:40 keine Meldung -
Mo, 23.11. 18:30 0.0 l/m2 in 1 Std. -
Mo, 23.11. 18:20 keine Meldung -
Mo, 23.11. 18:00 0.0 l/m2 in 1 Std. -
Mo, 23.11. 17:30 0.0 l/m2 in 1 Std. -
Mo, 23.11. 17:00 0.0 l/m2 in 1 Std. -
Mo, 23.11. 16:30 0.0 l/m2 in 1 Std. -
Mo, 23.11. 16:00 0.0 l/m2 in 1 Std. -
Ortszeit Stärke Spitze Richtung
km/h Bft. km/h Grad Sektor
Mo, 23.11. 19:00 14 3 40 250° W
Mo, 23.11. 13:00 19 3 37 280° W
Mo, 23.11. 7:00 15 3 28 250° W
Mo, 23.11. 1:00 13 3 31 240° SW
So, 22.11. 19:00 18 3 40 230° SW
So, 22.11. 13:00 24 4 41 250° W
So, 22.11. 7:00 22 4 40 210° SW
So, 22.11. 1:00 25 4 40 210° SW
Ortszeit Stärke Spitze Richtung
km/h Bft. km/h Grad Sektor
Mo, 23.11. 19:20 13 3 - 240° SW
Mo, 23.11. 19:00 14 3 22 250° W
Mo, 23.11. 18:50 14 3 - 250° W
Mo, 23.11. 18:40 13 3 - 260° W
Mo, 23.11. 18:30 14 3 22 250° W
Mo, 23.11. 18:20 14 3 - 250° W
Mo, 23.11. 18:00 14 3 22 260° W
Mo, 23.11. 17:30 11 2 22 260° W
Mo, 23.11. 17:00 15 3 24 260° W
Mo, 23.11. 16:30 14 3 25 250° W
Mo, 23.11. 16:00 14 3 32 260° W
Ortszeit Untergrenze Bedeckung Gattung
total tief tief mittel hoch
Mo, 23.11. 19:00 990 m 4/8 4/8 Sc - -
Mo, 23.11. 13:00 690 m 7/8 7/8 Cu - -
Mo, 23.11. 7:00 360 m 8/8 7/8 Cu - -
Mo, 23.11. 1:00 510 m 8/8 7/8 Sc - -
So, 22.11. 19:00 480 m 8/8 7/8 Cu - -
So, 22.11. 13:00 630 m 8/8 8/8 Sc - -
So, 22.11. 7:00 870 m 8/8 7/8 Sc - -
So, 22.11. 1:00 900 m 8/8 7/8 Sc - -
Ortszeit Bedeckungsgrad in Achtel und Wolkenuntergrenze
Mo, 23.11. 19:20 1-2(1050m)
Mo, 23.11. 19:00 4(990m)
Mo, 23.11. 18:50 5(960m)
Mo, 23.11. 18:40 6(960m)
Mo, 23.11. 18:30 4(990m)
Mo, 23.11. 18:20 keine Wolken
Mo, 23.11. 18:00 3(1170m)
Mo, 23.11. 17:30 1(900m) 5(1200m)
Mo, 23.11. 17:00 5(960m)
Mo, 23.11. 16:30 7(990m)
Mo, 23.11. 16:00 4(960m)
Ortszeit Luftdruck NN (hPa) Tendenz (hPa in 3 Std.)
Mo, 23.11. 19:00 1030 + 1,2
Mo, 23.11. 13:00 1027 + 0,5
Mo, 23.11. 7:00 1024 + 0,1
Mo, 23.11. 1:00 1025 - 0,5
So, 22.11. 19:00 1025 + 0,6
So, 22.11. 13:00 1024 - 0,7
So, 22.11. 7:00 1026 - 0,9
So, 22.11. 1:00 1028 - 1,2
Ortszeit Luftdruck NN (hPa) Tendenz (hPa in 3 Std.)
Mo, 23.11. 19:20 1029 keine Meldung
Mo, 23.11. 19:00 1030 + 1,2
Mo, 23.11. 18:50 1030 keine Meldung
Mo, 23.11. 18:40 1030 keine Meldung
Mo, 23.11. 18:30 1030 + 1,5
Mo, 23.11. 18:20 1030 keine Meldung
Mo, 23.11. 18:00 1029 + 1,5
Mo, 23.11. 17:30 1029 + 1,6
Mo, 23.11. 17:00 1029 + 1,4
Mo, 23.11. 16:30 1028 + 1,3
Mo, 23.11. 16:00 1028 + 1,2
Ortszeit Schneehöhe (cm)
Mo, 23.11. 19:00 0
Mo, 23.11. 13:00 0
Mo, 23.11. 7:00 0
Mo, 23.11. 1:00 0
So, 22.11. 19:00 0
So, 22.11. 13:00 0
So, 22.11. 7:00 0
So, 22.11. 1:00 0
Ortszeit Schneehöhe (cm)
Mo, 23.11. 19:20 -
Mo, 23.11. 19:00 0
Mo, 23.11. 18:50 0
Mo, 23.11. 18:40 0
Mo, 23.11. 18:30 0
Mo, 23.11. 18:20 0
Mo, 23.11. 18:00 0
Mo, 23.11. 17:30 0
Mo, 23.11. 17:00 0
Mo, 23.11. 16:30 0
Mo, 23.11. 16:00 0
Link zu dieser Seite / Seite empfehlen

Das Wetter in ...